createdAt,value
2018-01-23T00:01:09.251Z,5.10
2018-01-23T00:03:37.334Z,5.00
2018-01-23T00:06:05.335Z,5.60
2018-01-23T00:08:33.475Z,7.90
2018-01-23T00:11:01.555Z,7.90
2018-01-23T00:13:29.267Z,7.47
2018-01-23T00:15:57.059Z,5.80
2018-01-23T00:18:24.776Z,5.60
2018-01-23T00:20:52.507Z,5.37
2018-01-23T00:23:20.272Z,5.63
2018-01-23T00:25:48.023Z,5.27
2018-01-23T00:28:15.794Z,5.20
2018-01-23T00:30:43.487Z,3.47
2018-01-23T00:33:11.196Z,3.70
2018-01-23T00:35:38.862Z,3.33
2018-01-23T00:38:06.618Z,2.90
2018-01-23T00:40:34.328Z,3.47
2018-01-23T00:43:02.191Z,3.10
2018-01-23T00:45:29.879Z,1.70
2018-01-23T00:47:57.573Z,2.07
2018-01-23T00:50:25.326Z,1.80
2018-01-23T00:52:52.999Z,1.83
2018-01-23T00:55:20.726Z,1.30
2018-01-23T00:57:48.491Z,1.30
2018-01-23T01:00:16.258Z,1.80
2018-01-23T01:02:43.996Z,1.60
2018-01-23T01:05:11.653Z,1.07
2018-01-23T01:07:39.397Z,0.80
2018-01-23T01:10:07.182Z,0.70
2018-01-23T01:12:34.926Z,0.60
2018-01-23T01:15:02.632Z,0.70
2018-01-23T01:17:30.330Z,0.47
2018-01-23T01:19:58.083Z,0.37
2018-01-23T01:22:25.771Z,0.40
2018-01-23T01:24:53.524Z,0.50
2018-01-23T01:27:21.282Z,0.40
2018-01-23T01:29:48.944Z,0.50
2018-01-23T01:32:16.689Z,0.50
2018-01-23T01:34:44.537Z,0.30
2018-01-23T01:37:12.286Z,0.20
2018-01-23T01:39:40.260Z,0.60
2018-01-23T01:42:08.328Z,0.23
2018-01-23T01:44:36.228Z,0.30
2018-01-23T01:47:04.228Z,0.50
2018-01-23T01:49:31.958Z,0.20
2018-01-23T01:51:59.762Z,0.40
2018-01-23T01:54:27.527Z,0.40
2018-01-23T01:56:55.279Z,1.23
2018-01-23T01:59:23.001Z,0.30
2018-01-23T02:01:50.926Z,0.20
2018-01-23T02:04:18.795Z,0.30
2018-01-23T02:06:46.801Z,0.20
2018-01-23T02:09:14.830Z,0.70
2018-01-23T02:11:43.354Z,0.37
2018-01-23T02:14:11.228Z,0.27
2018-01-23T02:16:39.154Z,0.30
2018-01-23T02:19:07.024Z,0.40
2018-01-23T02:21:35.031Z,0.40
2018-01-23T02:24:03.081Z,0.30
2018-01-23T02:26:30.968Z,0.30
2018-01-23T02:28:58.853Z,0.23
2018-01-23T02:31:26.757Z,0.20
2018-01-23T02:33:54.623Z,0.20
2018-01-23T02:36:23.461Z,0.53
2018-01-23T02:38:51.461Z,0.23
2018-01-23T02:41:19.303Z,0.60
2018-01-23T02:43:47.119Z,1.53
2018-01-23T02:46:14.982Z,1.87
2018-01-23T02:48:42.707Z,4.13
2018-01-23T02:51:10.505Z,3.40
2018-01-23T02:53:38.255Z,3.27
2018-01-23T02:56:07.074Z,2.10
2018-01-23T02:58:34.836Z,0.80
2018-01-23T03:01:02.555Z,0.83
2018-01-23T03:03:30.340Z,0.70
2018-01-23T03:05:58.105Z,0.47
2018-01-23T03:08:25.775Z,0.40
2018-01-23T03:10:53.534Z,0.87
2018-01-23T03:13:21.221Z,0.60
2018-01-23T03:15:48.974Z,0.60
2018-01-23T03:18:16.722Z,0.50
2018-01-23T03:20:44.520Z,0.40
2018-01-23T03:23:12.285Z,0.70
2018-01-23T03:25:40.018Z,0.40
2018-01-23T03:28:07.852Z,0.60
2018-01-23T03:30:35.599Z,0.40
2018-01-23T03:33:03.368Z,0.80
2018-01-23T03:35:31.057Z,0.60
2018-01-23T03:37:58.762Z,0.60
2018-01-23T03:40:26.547Z,0.50
2018-01-23T03:42:54.399Z,0.40
2018-01-23T03:45:22.372Z,0.50
2018-01-23T03:47:50.474Z,0.30
2018-01-23T03:50:18.548Z,0.60
2018-01-23T03:52:46.725Z,0.50
2018-01-23T03:55:14.685Z,0.60
2018-01-23T03:57:42.766Z,0.50
2018-01-23T04:00:10.838Z,0.50
2018-01-23T04:02:38.883Z,1.13
2018-01-23T04:05:06.979Z,0.57
2018-01-23T04:07:34.921Z,0.63
2018-01-23T04:10:02.935Z,0.33
2018-01-23T04:12:31.551Z,0.50
2018-01-23T04:14:59.678Z,0.33
2018-01-23T04:17:28.452Z,0.67
2018-01-23T04:19:56.228Z,0.50
2018-01-23T04:22:24.297Z,0.60
2018-01-23T04:24:52.589Z,0.50
2018-01-23T04:27:21.379Z,0.50
2018-01-23T04:29:49.252Z,0.90
2018-01-23T04:32:17.389Z,0.67
2018-01-23T04:34:45.294Z,0.70
2018-01-23T04:37:14.275Z,0.80
2018-01-23T04:39:42.263Z,0.80
2018-01-23T04:42:10.340Z,0.60
2018-01-23T04:44:38.375Z,0.80
2018-01-23T04:47:07.287Z,0.57
2018-01-23T04:49:35.166Z,0.50
2018-01-23T04:52:03.204Z,0.77
2018-01-23T04:54:32.015Z,0.50
2018-01-23T04:57:00.660Z,0.83
2018-01-23T04:59:28.665Z,0.43
2018-01-23T05:01:57.081Z,1.03
2018-01-23T05:04:25.009Z,0.60
2018-01-23T05:06:53.104Z,0.63
2018-01-23T05:09:21.016Z,0.60
2018-01-23T05:11:48.983Z,0.60
2018-01-23T05:14:17.202Z,0.83
2018-01-23T05:16:44.969Z,0.53
2018-01-23T05:19:12.841Z,0.73
2018-01-23T05:21:40.615Z,0.83
2018-01-23T05:24:08.342Z,0.40
2018-01-23T05:26:36.109Z,0.87
2018-01-23T05:29:03.883Z,0.60
2018-01-23T05:31:31.564Z,0.60
2018-01-23T05:33:59.232Z,0.73
2018-01-23T05:36:26.981Z,0.50
2018-01-23T05:38:55.122Z,0.53
2018-01-23T05:41:23.390Z,0.60
2018-01-23T05:43:51.209Z,0.70
2018-01-23T05:46:19.348Z,0.57
2018-01-23T05:48:47.434Z,0.60
2018-01-23T05:51:15.584Z,0.70
2018-01-23T05:53:43.376Z,1.37
2018-01-23T05:56:11.391Z,0.70
2018-01-23T05:58:39.509Z,0.70
2018-01-23T06:01:07.211Z,0.90
2018-01-23T06:03:35.353Z,0.90
2018-01-23T06:06:03.090Z,0.80
2018-01-23T06:08:30.825Z,0.80
2018-01-23T06:10:58.558Z,0.97
2018-01-23T06:13:26.338Z,0.70
2018-01-23T06:15:54.024Z,1.20
2018-01-23T06:18:21.775Z,1.10
2018-01-23T06:20:49.725Z,0.80
2018-01-23T06:23:17.810Z,0.60
2018-01-23T06:25:45.494Z,0.67
2018-01-23T06:28:13.291Z,0.70
2018-01-23T06:30:40.975Z,0.60
2018-01-23T06:33:08.794Z,0.67
2018-01-23T06:35:40.494Z,0.83
2018-01-23T06:38:08.430Z,0.70
2018-01-23T06:40:36.451Z,0.50
2018-01-23T06:43:04.215Z,0.50
2018-01-23T06:45:31.973Z,0.90
2018-01-23T06:47:59.762Z,0.70
2018-01-23T06:50:27.556Z,0.80
2018-01-23T06:52:55.361Z,1.17
2018-01-23T06:55:23.075Z,0.80
2018-01-23T06:57:50.834Z,0.50
2018-01-23T07:00:18.680Z,0.87
2018-01-23T07:02:46.451Z,0.70
2018-01-23T07:05:14.234Z,0.90
2018-01-23T07:07:41.950Z,0.67
2018-01-23T07:10:09.762Z,0.80
2018-01-23T07:12:37.595Z,0.80
2018-01-23T07:15:05.374Z,0.93
2018-01-23T07:17:33.120Z,0.87
2018-01-23T07:20:00.933Z,0.73
2018-01-23T07:22:28.709Z,0.60
2018-01-23T07:24:56.406Z,0.53
2018-01-23T07:27:24.259Z,1.27
2018-01-23T07:29:51.945Z,0.60
2018-01-23T07:32:19.713Z,0.83
2018-01-23T07:34:47.423Z,1.07
2018-01-23T07:37:15.243Z,0.90
2018-01-23T07:39:42.959Z,0.80
2018-01-23T07:42:10.676Z,0.67
2018-01-23T07:44:38.375Z,1.00
2018-01-23T07:47:06.154Z,2.03
2018-01-23T07:49:33.833Z,1.83
2018-01-23T07:52:01.534Z,1.07
2018-01-23T07:54:29.246Z,0.80
2018-01-23T07:56:56.992Z,0.50
2018-01-23T07:59:24.780Z,0.60
2018-01-23T08:01:52.476Z,0.90
2018-01-23T08:04:21.477Z,0.70
2018-01-23T08:06:49.175Z,1.97
2018-01-23T08:09:16.976Z,2.60
2018-01-23T08:11:44.716Z,0.90
2018-01-23T08:14:12.496Z,0.87
2018-01-23T08:16:40.326Z,3.50
2018-01-23T08:19:08.772Z,1.43
2018-01-23T08:21:36.650Z,1.40
2018-01-23T08:24:04.654Z,0.70
2018-01-23T08:26:32.432Z,0.40
2018-01-23T08:29:00.168Z,0.80
2018-01-23T08:31:27.914Z,3.70
2018-01-23T08:33:55.665Z,3.77
2018-01-23T08:36:23.438Z,2.30
2018-01-23T08:38:51.232Z,1.50
2018-01-23T08:41:18.935Z,2.53
2018-01-23T08:43:47.562Z,10.33
2018-01-23T08:46:15.539Z,9.90
2018-01-23T08:48:43.425Z,8.37
2018-01-23T08:51:11.120Z,2.90
2018-01-23T08:53:38.915Z,0.90
2018-01-23T08:56:06.627Z,0.90
2018-01-23T08:58:34.373Z,0.60
2018-01-23T09:01:02.187Z,1.43
2018-01-23T09:03:29.954Z,0.67
2018-01-23T09:05:57.656Z,0.63
2018-01-23T09:08:25.600Z,1.83
2018-01-23T09:10:53.412Z,0.70
2018-01-23T09:13:21.158Z,0.83
2018-01-23T09:15:49.551Z,0.97
2018-01-23T09:18:17.354Z,1.00
2018-01-23T09:20:45.153Z,1.23
2018-01-23T09:23:13.005Z,0.90
2018-01-23T09:25:40.728Z,1.03
2018-01-23T09:28:08.540Z,1.20
2018-01-23T09:30:36.567Z,2.10
2018-01-23T09:33:05.565Z,1.83
2018-01-23T09:35:33.277Z,0.60
2018-01-23T09:38:00.998Z,1.00
2018-01-23T09:40:28.777Z,2.47
2018-01-23T09:42:56.629Z,4.23
2018-01-23T09:45:24.649Z,2.33
2018-01-23T09:47:52.564Z,1.80
2018-01-23T09:50:21.267Z,1.53
2018-01-23T09:52:48.980Z,1.60
2018-01-23T09:55:16.758Z,2.00
2018-01-23T09:57:44.484Z,2.57
2018-01-23T10:00:12.264Z,1.10
2018-01-23T10:02:40.047Z,0.93
2018-01-23T10:05:07.751Z,0.80
2018-01-23T10:07:35.610Z,0.63
2018-01-23T10:10:03.359Z,1.97
2018-01-23T10:12:31.098Z,0.70
2018-01-23T10:14:58.907Z,0.63
2018-01-23T10:17:26.681Z,0.60
2018-01-23T10:19:54.713Z,1.50
2018-01-23T10:22:24.753Z,1.07
2018-01-23T10:24:52.591Z,0.70
2018-01-23T10:27:20.540Z,4.13
2018-01-23T10:29:48.691Z,3.10
2018-01-23T10:32:16.720Z,1.87
2018-01-23T10:34:44.834Z,0.60
2018-01-23T10:37:13.881Z,1.40
2018-01-23T10:39:41.994Z,0.63
2018-01-23T10:42:10.076Z,3.77
2018-01-23T10:44:38.147Z,3.80
2018-01-23T10:47:07.212Z,3.37
2018-01-23T10:49:36.092Z,3.80
2018-01-23T10:52:04.651Z,7.00
2018-01-23T10:54:32.489Z,2.73
2018-01-23T10:57:00.550Z,2.20
2018-01-23T10:59:28.345Z,5.00
2018-01-23T11:01:56.129Z,2.63
2018-01-23T11:04:24.119Z,2.40
2018-01-23T11:06:52.208Z,1.10
2018-01-23T11:09:19.952Z,0.90
2018-01-23T11:11:47.733Z,0.50
2018-01-23T11:14:15.537Z,1.90
2018-01-23T11:16:43.322Z,2.83
2018-01-23T11:19:11.047Z,0.83
2018-01-23T11:21:38.806Z,1.00
2018-01-23T11:24:06.596Z,0.90
2018-01-23T11:26:34.321Z,0.50
2018-01-23T11:29:02.100Z,0.53
2018-01-23T11:31:29.906Z,1.60
2018-01-23T11:33:57.689Z,1.37
2018-01-23T11:36:25.500Z,1.20
2018-01-23T11:38:53.230Z,0.80
2018-01-23T11:41:20.999Z,1.30
2018-01-23T11:43:48.817Z,1.17
2018-01-23T11:46:16.536Z,0.87
2018-01-23T11:48:44.316Z,1.00
2018-01-23T11:51:12.084Z,1.73
2018-01-23T11:53:40.742Z,0.73
2018-01-23T11:56:08.611Z,7.23
2018-01-23T11:58:36.327Z,2.70
2018-01-23T12:01:04.047Z,2.63
2018-01-23T12:03:31.782Z,1.37
2018-01-23T12:05:59.535Z,3.70
2018-01-23T12:08:27.681Z,6.53
2018-01-23T12:10:57.388Z,1.70
2018-01-23T12:13:26.168Z,8.03
2018-01-23T12:15:54.560Z,3.40
2018-01-23T12:18:23.284Z,1.50
2018-01-23T12:20:51.150Z,0.80
2018-01-23T12:23:20.012Z,1.97
2018-01-23T12:25:49.246Z,1.00
2018-01-23T12:28:17.225Z,1.03
2018-01-23T12:30:46.164Z,1.20
2018-01-23T12:33:14.113Z,1.43
2018-01-23T12:35:43.302Z,2.13
2018-01-23T12:38:11.435Z,2.37
2018-01-23T12:40:40.193Z,2.63
2018-01-23T12:43:08.269Z,4.60
2018-01-23T12:45:36.463Z,5.50
2018-01-23T12:48:04.513Z,3.70
2018-01-23T12:50:32.583Z,3.07
2018-01-23T12:53:00.742Z,1.90
2018-01-23T12:55:28.782Z,1.83
2018-01-23T12:57:56.955Z,0.60
2018-01-23T13:00:25.388Z,1.90
2018-01-23T13:02:53.458Z,1.97
2018-01-23T13:05:22.761Z,2.10
2018-01-23T13:07:50.897Z,0.90
2018-01-23T13:10:18.713Z,0.87
2018-01-23T13:12:47.702Z,1.50
2018-01-23T13:15:16.584Z,2.17
2018-01-23T13:17:46.294Z,2.07
2018-01-23T13:20:14.366Z,4.17
2018-01-23T13:22:42.243Z,1.90
2018-01-23T13:25:10.363Z,2.10
2018-01-23T13:27:38.694Z,1.10
2018-01-23T13:30:08.192Z,1.33
2018-01-23T13:32:37.118Z,1.03
2018-01-23T13:35:05.147Z,1.17
2018-01-23T13:37:33.202Z,0.73
2018-01-23T13:40:01.248Z,1.00
2018-01-23T13:42:31.102Z,1.00
2018-01-23T13:44:59.643Z,0.80
2018-01-23T13:47:27.559Z,0.70
2018-01-23T13:49:55.481Z,3.00
2018-01-23T13:52:24.148Z,2.10
2018-01-23T13:54:52.041Z,1.00
2018-01-23T13:57:19.909Z,1.20
2018-01-23T13:59:47.748Z,0.70
2018-01-23T14:02:15.783Z,0.70
2018-01-23T14:04:45.097Z,1.93
2018-01-23T14:07:13.127Z,1.37
2018-01-23T14:09:41.199Z,0.83
2018-01-23T14:12:09.305Z,1.10
2018-01-23T14:14:37.256Z,1.07
2018-01-23T14:17:05.439Z,1.30
2018-01-23T14:19:34.542Z,0.90
2018-01-23T14:22:02.628Z,1.37
2018-01-23T14:24:31.689Z,1.10
2018-01-23T14:27:00.762Z,1.03
2018-01-23T14:29:28.771Z,1.00
2018-01-23T14:31:56.928Z,0.70
2018-01-23T14:34:25.022Z,0.90
2018-01-23T14:36:53.405Z,0.70
2018-01-23T14:39:21.240Z,0.97
2018-01-23T14:41:49.183Z,0.80
2018-01-23T14:44:16.963Z,2.20
2018-01-23T14:46:44.791Z,0.90
2018-01-23T14:49:12.544Z,1.30
2018-01-23T14:51:40.409Z,1.93
2018-01-23T14:54:08.207Z,2.13
2018-01-23T14:56:35.925Z,1.50
2018-01-23T14:59:03.834Z,0.90
2018-01-23T15:01:31.596Z,0.70
2018-01-23T15:03:59.432Z,1.00
2018-01-23T15:06:28.114Z,0.90
2018-01-23T15:08:55.929Z,1.00
2018-01-23T15:11:23.705Z,1.20
2018-01-23T15:13:51.438Z,1.40
2018-01-23T15:16:19.232Z,1.33
2018-01-23T15:18:47.006Z,1.00
2018-01-23T15:21:14.707Z,1.20
2018-01-23T15:23:42.569Z,0.90
2018-01-23T15:26:10.348Z,1.07
2018-01-23T15:28:38.187Z,1.27
2018-01-23T15:31:05.942Z,1.90
2018-01-23T15:33:33.756Z,2.27
2018-01-23T15:36:01.542Z,1.20
2018-01-23T15:38:29.261Z,0.90
2018-01-23T15:40:57.075Z,1.10
2018-01-23T15:43:24.863Z,0.80
2018-01-23T15:45:52.624Z,0.67
2018-01-23T15:48:20.340Z,0.80
2018-01-23T15:50:48.126Z,1.30
2018-01-23T15:53:15.887Z,1.60
2018-01-23T15:55:43.598Z,2.00
2018-01-23T15:58:11.395Z,2.67
2018-01-23T16:00:39.094Z,3.90
2018-01-23T16:03:08.438Z,2.30
2018-01-23T16:05:36.554Z,1.83
2018-01-23T16:08:04.485Z,1.27
2018-01-23T16:10:33.895Z,1.47
2018-01-23T16:13:01.955Z,1.40
2018-01-23T16:15:30.844Z,0.97
2018-01-23T16:17:58.919Z,1.33
2018-01-23T16:20:26.871Z,2.20
2018-01-23T16:22:54.957Z,1.40
2018-01-23T16:25:23.029Z,1.50
2018-01-23T16:27:51.107Z,1.50
2018-01-23T16:30:19.115Z,1.63
2018-01-23T16:32:47.043Z,1.30
2018-01-23T16:35:15.936Z,1.57
2018-01-23T16:37:44.004Z,2.80
2018-01-23T16:40:12.075Z,2.90
2018-01-23T16:42:40.118Z,1.90
2018-01-23T16:45:08.232Z,3.00
2018-01-23T16:47:37.482Z,2.03
2018-01-23T16:50:05.554Z,1.97
2018-01-23T16:52:33.994Z,2.37
2018-01-23T16:55:02.142Z,1.90
2018-01-23T16:57:30.013Z,1.90
2018-01-23T16:59:57.888Z,1.70
2018-01-23T17:02:25.859Z,1.40
2018-01-23T17:04:53.901Z,1.33
2018-01-23T17:07:24.071Z,1.30
2018-01-23T17:09:51.984Z,1.40
2018-01-23T17:12:19.980Z,1.03
2018-01-23T17:14:47.993Z,0.70
2018-01-23T17:17:16.115Z,0.97
2018-01-23T17:19:44.104Z,0.90
2018-01-23T17:22:12.141Z,1.07
2018-01-23T17:24:39.988Z,0.80
2018-01-23T17:27:08.907Z,1.93
2018-01-23T17:29:36.820Z,2.33
2018-01-23T17:32:04.976Z,1.43
2018-01-23T17:34:33.105Z,1.47
2018-01-23T17:37:01.299Z,1.30
2018-01-23T17:39:29.385Z,1.63
2018-01-23T17:41:57.458Z,0.93
2018-01-23T17:44:25.376Z,1.30
2018-01-23T17:46:53.463Z,1.37
2018-01-23T17:49:22.294Z,1.60
2018-01-23T17:51:50.609Z,1.20
2018-01-23T17:54:19.640Z,1.20
2018-01-23T17:56:47.938Z,4.57
2018-01-23T17:59:16.018Z,10.80
2018-01-23T18:01:44.081Z,4.03
2018-01-23T18:04:12.163Z,3.60
2018-01-23T18:06:40.432Z,2.63
2018-01-23T18:09:08.497Z,2.10
2018-01-23T18:11:36.536Z,1.73
2018-01-23T18:14:04.652Z,4.20
2018-01-23T18:16:32.544Z,3.40
2018-01-23T18:19:01.205Z,3.37
2018-01-23T18:21:29.204Z,2.97
2018-01-23T18:23:56.999Z,3.63
2018-01-23T18:26:25.128Z,2.60
2018-01-23T18:28:53.182Z,2.73
2018-01-23T18:31:21.751Z,1.90
2018-01-23T18:33:49.915Z,2.23
2018-01-23T18:36:18.232Z,2.00
2018-01-23T18:38:46.289Z,2.40
2018-01-23T18:41:15.516Z,1.90
2018-01-23T18:43:43.506Z,1.97
2018-01-23T18:46:13.267Z,1.73
2018-01-23T18:48:42.303Z,2.70
2018-01-23T18:51:11.856Z,1.63
2018-01-23T18:53:40.484Z,2.13
2018-01-23T18:56:10.047Z,2.57
2018-01-23T18:58:38.222Z,2.87
2018-01-23T19:01:07.134Z,2.47
2018-01-23T19:03:35.342Z,2.90
2018-01-23T19:06:04.278Z,5.97
2018-01-23T19:08:32.737Z,6.30
2018-01-23T19:11:01.571Z,4.40
2018-01-23T19:13:30.999Z,5.40
2018-01-23T19:16:00.554Z,3.50
2018-01-23T19:18:29.043Z,2.53
2018-01-23T19:20:58.038Z,3.27
2018-01-23T19:23:26.479Z,4.03
2018-01-23T19:25:54.687Z,2.93
2018-01-23T19:28:23.805Z,2.83
2018-01-23T19:30:53.079Z,2.00
2018-01-23T19:33:21.977Z,2.60
2018-01-23T19:35:51.460Z,2.60
2018-01-23T19:38:19.840Z,1.90
2018-01-23T19:40:49.991Z,4.57
2018-01-23T19:43:19.863Z,6.40
2018-01-23T19:45:49.933Z,5.10
2018-01-23T19:48:20.322Z,3.70
2018-01-23T19:50:49.847Z,3.83
2018-01-23T19:53:17.754Z,6.80
2018-01-23T19:55:46.090Z,5.43
2018-01-23T19:58:14.315Z,4.03
2018-01-23T20:00:42.558Z,3.00
2018-01-23T20:03:14.246Z,3.13
2018-01-23T20:05:43.210Z,2.80
2018-01-23T20:08:11.361Z,2.87
2018-01-23T20:10:39.337Z,5.77
2018-01-23T20:13:07.533Z,6.00
2018-01-23T20:15:36.624Z,3.13
2018-01-23T20:18:04.549Z,2.40
2018-01-23T20:20:32.741Z,2.10
2018-01-23T20:23:00.846Z,4.90
2018-01-23T20:25:28.898Z,4.10
2018-01-23T20:27:56.842Z,4.33
2018-01-23T20:30:24.813Z,4.70
2018-01-23T20:32:52.748Z,5.77
2018-01-23T20:35:21.654Z,5.90
2018-01-23T20:37:49.560Z,4.23
2018-01-23T20:40:17.713Z,5.10
2018-01-23T20:42:46.441Z,5.63
2018-01-23T20:45:14.334Z,6.13
2018-01-23T20:47:42.335Z,6.67
2018-01-23T20:50:10.197Z,11.83
2018-01-23T20:52:38.272Z,17.33
2018-01-23T20:55:07.209Z,23.13
2018-01-23T20:57:35.308Z,17.87
2018-01-23T21:00:03.689Z,19.00
2018-01-23T21:02:31.734Z,24.40
2018-01-23T21:04:59.877Z,20.67
2018-01-23T21:07:27.874Z,22.37
2018-01-23T21:09:55.933Z,20.50
2018-01-23T21:12:24.331Z,28.87
2018-01-23T21:14:52.490Z,25.30
2018-01-23T21:17:20.333Z,18.07
2018-01-23T21:19:48.953Z,19.47
2018-01-23T21:22:17.640Z,20.03
2018-01-23T21:24:45.712Z,23.17
2018-01-23T21:27:13.890Z,28.50
2018-01-23T21:29:42.070Z,30.23
2018-01-23T21:32:09.841Z,33.80
2018-01-23T21:34:37.795Z,31.10
2018-01-23T21:37:05.991Z,28.43
2018-01-23T21:39:33.956Z,25.80
2018-01-23T21:42:02.022Z,21.20
2018-01-23T21:44:30.087Z,18.73
2018-01-23T21:46:58.089Z,18.20
2018-01-23T21:49:26.229Z,20.63
2018-01-23T21:51:54.095Z,23.20
2018-01-23T21:54:22.268Z,20.87
2018-01-23T21:56:50.226Z,25.80
2018-01-23T21:59:18.414Z,39.73
2018-01-23T22:01:46.888Z,41.97
2018-01-23T22:04:14.972Z,45.73
2018-01-23T22:06:43.035Z,41.03
2018-01-23T22:09:11.163Z,35.67
2018-01-23T22:11:39.392Z,33.30
2018-01-23T22:14:08.071Z,27.23
2018-01-23T22:16:37.002Z,30.77
2018-01-23T22:19:04.936Z,23.30
2018-01-23T22:21:32.854Z,30.70
2018-01-23T22:24:00.743Z,21.63
2018-01-23T22:26:28.662Z,16.90
2018-01-23T22:28:56.802Z,17.80
2018-01-23T22:31:24.884Z,16.47
2018-01-23T22:33:53.568Z,16.27
2018-01-23T22:36:21.645Z,15.97
2018-01-23T22:38:50.601Z,12.37
2018-01-23T22:41:18.588Z,16.10
2018-01-23T22:43:46.682Z,16.97
2018-01-23T22:46:14.697Z,17.37
2018-01-23T22:48:42.817Z,23.20
2018-01-23T22:51:10.891Z,21.50
2018-01-23T22:53:38.822Z,21.50
2018-01-23T22:56:06.830Z,26.50
2018-01-23T22:58:34.753Z,26.63
2018-01-23T23:01:02.869Z,32.93
2018-01-23T23:03:31.243Z,28.20
2018-01-23T23:05:59.331Z,28.80
2018-01-23T23:08:28.224Z,24.10
2018-01-23T23:10:56.085Z,23.30
2018-01-23T23:13:24.149Z,30.30
2018-01-23T23:15:52.229Z,23.87
2018-01-23T23:18:20.301Z,23.20
2018-01-23T23:20:48.198Z,32.47
2018-01-23T23:23:16.243Z,22.63
2018-01-23T23:25:44.192Z,22.57
2018-01-23T23:28:12.183Z,24.20
2018-01-23T23:30:40.120Z,22.70
2018-01-23T23:33:07.931Z,24.20
2018-01-23T23:35:36.084Z,26.03
2018-01-23T23:38:03.969Z,27.37
2018-01-23T23:40:32.971Z,24.57
2018-01-23T23:43:01.112Z,25.10
2018-01-23T23:45:29.034Z,24.07
2018-01-23T23:47:57.886Z,22.57
2018-01-23T23:50:25.917Z,22.23
2018-01-23T23:52:53.904Z,19.10
2018-01-23T23:55:22.508Z,20.27
2018-01-23T23:57:51.396Z,21.47
